createdAt,value
2019-05-11T00:00:44.586Z,34.80
2019-05-11T00:03:11.597Z,34.87
2019-05-11T00:05:39.007Z,33.27
2019-05-11T00:08:06.048Z,33.77
2019-05-11T00:10:33.150Z,33.37
2019-05-11T00:13:00.305Z,33.03
2019-05-11T00:15:27.886Z,34.07
2019-05-11T00:17:54.874Z,34.87
2019-05-11T00:20:22.930Z,34.17
2019-05-11T00:22:49.969Z,34.07
2019-05-11T00:25:17.570Z,34.10
2019-05-11T00:27:44.637Z,34.10
2019-05-11T00:30:13.428Z,35.77
2019-05-11T00:32:40.476Z,35.13
2019-05-11T00:35:08.594Z,32.63
2019-05-11T00:37:35.666Z,35.23
2019-05-11T00:40:14.085Z,33.47
2019-05-11T00:42:32.056Z,33.07
2019-05-11T00:44:59.811Z,33.93
2019-05-11T00:47:26.838Z,33.70
2019-05-11T00:49:53.830Z,33.80
2019-05-11T00:52:21.042Z,33.90
2019-05-11T00:54:48.776Z,36.07
2019-05-11T00:57:18.501Z,35.00
2019-05-11T00:59:45.502Z,34.17
2019-05-11T01:02:12.511Z,36.27
2019-05-11T01:04:39.871Z,33.80
2019-05-11T01:07:06.899Z,36.17
2019-05-11T01:09:34.396Z,32.93
2019-05-11T01:12:01.518Z,31.20
2019-05-11T01:14:28.906Z,35.80
2019-05-11T01:16:55.924Z,36.60
2019-05-11T01:19:22.942Z,36.30
2019-05-11T01:21:50.537Z,34.93
2019-05-11T01:24:19.058Z,34.87
2019-05-11T01:26:46.106Z,33.53
2019-05-11T01:29:13.361Z,34.73
2019-05-11T01:31:40.394Z,36.20
2019-05-11T01:34:08.031Z,33.77
2019-05-11T01:36:35.075Z,37.03
2019-05-11T01:39:02.212Z,35.43
2019-05-11T01:41:29.270Z,36.60
2019-05-11T01:43:57.715Z,35.40
2019-05-11T01:46:24.717Z,37.87
2019-05-11T01:48:51.842Z,37.40
2019-05-11T01:51:19.518Z,34.40
2019-05-11T01:53:48.100Z,34.13
2019-05-11T01:56:15.350Z,36.10
2019-05-11T01:58:42.352Z,38.13
2019-05-11T02:01:09.347Z,36.47
2019-05-11T02:03:36.770Z,38.20
2019-05-11T02:06:04.002Z,37.00
2019-05-11T02:08:31.019Z,37.07
2019-05-11T02:11:13.807Z,35.43
2019-05-11T02:13:26.979Z,37.13
2019-05-11T02:15:54.091Z,38.73
2019-05-11T02:18:21.131Z,35.43
2019-05-11T02:20:48.559Z,36.70
2019-05-11T02:23:15.827Z,35.53
2019-05-11T02:25:42.831Z,36.37
2019-05-11T02:28:09.939Z,38.87
2019-05-11T02:30:36.984Z,40.00
2019-05-11T02:33:03.983Z,40.30
2019-05-11T02:35:31.197Z,41.20
2019-05-11T02:37:58.539Z,42.27
2019-05-11T02:40:25.795Z,41.00
2019-05-11T02:42:52.787Z,44.37
2019-05-11T02:45:37.729Z,44.93
2019-05-11T02:48:04.751Z,42.27
2019-05-11T02:50:32.881Z,42.63
2019-05-11T02:53:01.088Z,42.80
2019-05-11T02:55:28.763Z,40.57
2019-05-11T02:57:55.773Z,40.70
2019-05-11T03:00:34.274Z,42.10
2019-05-11T03:03:01.275Z,41.07
2019-05-11T03:05:28.263Z,40.97
2019-05-11T03:07:55.267Z,41.60
2019-05-11T03:10:22.607Z,41.47
2019-05-11T03:12:49.588Z,38.50
2019-05-11T03:15:16.970Z,38.07
2019-05-11T03:17:43.980Z,36.67
2019-05-11T03:20:11.583Z,39.53
2019-05-11T03:22:38.558Z,38.33
2019-05-11T03:25:07.049Z,38.07
2019-05-11T03:27:34.130Z,38.33
2019-05-11T03:30:02.232Z,39.40
2019-05-11T03:32:29.511Z,37.10
2019-05-11T03:34:56.501Z,37.73
2019-05-11T03:37:26.921Z,38.33
2019-05-11T03:39:54.176Z,38.27
2019-05-11T03:42:21.416Z,37.60
2019-05-11T03:44:48.466Z,38.53
2019-05-11T03:47:15.833Z,42.10
2019-05-11T03:49:42.845Z,37.57
2019-05-11T03:52:09.854Z,40.27
2019-05-11T03:54:36.835Z,37.63
2019-05-11T03:57:05.186Z,36.60
2019-05-11T03:59:32.302Z,37.93
2019-05-11T04:01:59.406Z,37.90
2019-05-11T04:04:26.442Z,35.57
2019-05-11T04:06:53.843Z,36.00
2019-05-11T04:09:20.823Z,36.20
2019-05-11T04:11:48.242Z,32.93
2019-05-11T04:14:16.557Z,34.30
2019-05-11T04:16:44.063Z,34.33
2019-05-11T04:19:11.142Z,36.20
2019-05-11T04:21:38.197Z,34.63
2019-05-11T04:24:05.211Z,34.40
2019-05-11T04:26:32.878Z,31.73
2019-05-11T04:28:59.904Z,30.97
2019-05-11T04:31:26.935Z,30.97
2019-05-11T04:33:54.398Z,30.57
2019-05-11T04:36:21.496Z,29.63
2019-05-11T04:38:48.961Z,27.43
2019-05-11T04:41:16.073Z,27.57
2019-05-11T04:43:43.446Z,25.33
2019-05-11T04:46:10.620Z,26.57
2019-05-11T04:48:37.629Z,26.13
2019-05-11T04:51:04.700Z,24.53
2019-05-11T04:53:31.984Z,22.70
2019-05-11T04:55:59.058Z,22.73
2019-05-11T04:58:27.188Z,22.37
2019-05-11T05:00:54.208Z,22.80
2019-05-11T05:03:21.632Z,22.50
2019-05-11T05:05:49.250Z,21.50
2019-05-11T05:08:16.259Z,21.10
2019-05-11T05:10:43.339Z,21.20
2019-05-11T05:13:11.097Z,19.17
2019-05-11T05:15:38.352Z,18.97
2019-05-11T05:18:05.620Z,19.23
2019-05-11T05:20:32.653Z,19.73
2019-05-11T05:22:59.960Z,18.63
2019-05-11T05:25:27.209Z,17.03
2019-05-11T05:27:55.036Z,18.03
2019-05-11T05:30:22.189Z,17.60
2019-05-11T05:32:49.345Z,18.30
2019-05-11T05:35:16.361Z,17.37
2019-05-11T05:37:43.324Z,17.53
2019-05-11T05:40:10.460Z,17.67
2019-05-11T05:42:37.476Z,18.00
2019-05-11T05:45:05.606Z,15.73
2019-05-11T05:47:32.640Z,17.70
2019-05-11T05:49:59.672Z,17.10
2019-05-11T05:52:27.137Z,17.00
2019-05-11T05:54:54.757Z,17.07
2019-05-11T05:57:21.952Z,16.20
2019-05-11T05:59:49.003Z,17.07
2019-05-11T06:02:16.148Z,16.40
2019-05-11T06:04:43.189Z,17.07
2019-05-11T06:07:10.245Z,16.43
2019-05-11T06:09:37.245Z,16.20
2019-05-11T06:12:04.640Z,15.37
2019-05-11T06:14:31.696Z,16.67
2019-05-11T06:16:59.057Z,15.93
2019-05-11T06:19:26.094Z,15.87
2019-05-11T06:21:53.409Z,16.53
2019-05-11T06:24:20.490Z,16.27
2019-05-11T06:26:49.557Z,14.77
2019-05-11T06:29:21.280Z,15.03
2019-05-11T06:31:46.657Z,16.50
2019-05-11T06:34:14.109Z,16.73
2019-05-11T06:36:41.153Z,15.20
2019-05-11T06:39:08.332Z,15.73
2019-05-11T06:41:36.028Z,16.30
2019-05-11T06:44:03.589Z,14.43
2019-05-11T06:46:30.679Z,14.47
2019-05-11T06:48:58.209Z,13.43
2019-05-11T06:51:25.285Z,14.37
2019-05-11T06:53:52.434Z,15.40
2019-05-11T06:56:19.793Z,15.10
2019-05-11T06:58:49.327Z,15.43
2019-05-11T07:01:16.356Z,13.27
2019-05-11T07:03:43.393Z,14.50
2019-05-11T07:06:10.442Z,15.33
2019-05-11T07:08:37.866Z,14.10
2019-05-11T07:11:06.094Z,14.30
2019-05-11T07:13:33.168Z,13.20
2019-05-11T07:16:00.169Z,13.83
2019-05-11T07:18:27.228Z,13.80
2019-05-11T07:20:54.254Z,13.50
2019-05-11T07:23:21.310Z,14.83
2019-05-11T07:25:49.722Z,14.30
2019-05-11T07:28:17.466Z,14.53
2019-05-11T07:30:44.809Z,13.67
2019-05-11T07:33:14.100Z,13.87
2019-05-11T07:35:41.082Z,13.67
2019-05-11T07:38:08.418Z,14.30
2019-05-11T07:40:38.521Z,13.77
2019-05-11T07:43:09.494Z,13.17
2019-05-11T07:45:35.180Z,13.10
2019-05-11T07:48:02.537Z,13.27
2019-05-11T07:50:29.619Z,13.83
2019-05-11T07:52:58.931Z,13.70
2019-05-11T07:55:28.194Z,13.90
2019-05-11T07:57:54.930Z,13.23
2019-05-11T08:00:21.974Z,13.40
2019-05-11T08:02:49.018Z,13.63
2019-05-11T08:05:18.002Z,13.20
2019-05-11T08:07:47.950Z,13.33
2019-05-11T08:10:14.754Z,13.30
2019-05-11T08:12:41.993Z,13.60
2019-05-11T08:15:13.282Z,13.83
2019-05-11T08:17:39.978Z,13.67
2019-05-11T08:20:08.450Z,13.73
2019-05-11T08:22:37.757Z,13.37
2019-05-11T08:25:05.150Z,13.27
2019-05-11T08:27:32.588Z,13.80
2019-05-11T08:29:59.651Z,15.47
2019-05-11T08:32:28.710Z,14.57
2019-05-11T08:34:58.491Z,14.17
2019-05-11T08:37:25.606Z,14.47
2019-05-11T08:39:52.864Z,15.70
2019-05-11T08:42:21.358Z,14.37
2019-05-11T08:44:48.851Z,14.70
2019-05-11T08:47:17.772Z,14.93
2019-05-11T08:49:44.861Z,15.10
2019-05-11T08:52:11.886Z,14.90
2019-05-11T08:54:38.988Z,15.43
2019-05-11T08:57:08.178Z,13.27
2019-05-11T08:59:39.209Z,13.83
2019-05-11T09:02:08.319Z,14.33
2019-05-11T09:04:39.406Z,13.43
2019-05-11T09:07:04.674Z,13.17
2019-05-11T09:09:31.747Z,13.47
2019-05-11T09:11:59.071Z,13.33
2019-05-11T09:14:28.417Z,13.93
2019-05-11T09:16:57.596Z,13.17
2019-05-11T09:19:24.743Z,12.63
2019-05-11T09:21:52.316Z,12.47
2019-05-11T09:24:19.347Z,13.07
2019-05-11T09:26:47.947Z,12.07
2019-05-11T09:29:15.215Z,12.67
2019-05-11T09:31:43.575Z,14.07
2019-05-11T09:34:10.684Z,12.03
2019-05-11T09:36:38.948Z,12.50
2019-05-11T09:39:08.436Z,11.97
2019-05-11T09:41:38.324Z,11.83
2019-05-11T09:44:09.019Z,11.90
2019-05-11T09:46:38.436Z,11.90
2019-05-11T09:49:07.836Z,11.67
2019-05-11T09:51:34.531Z,11.90
2019-05-11T09:54:01.588Z,12.10
2019-05-11T09:56:29.121Z,11.03
2019-05-11T09:58:58.890Z,11.03
2019-05-11T10:01:26.254Z,10.90
2019-05-11T10:03:53.306Z,10.60
2019-05-11T10:06:20.403Z,11.93
2019-05-11T10:08:48.778Z,11.67
2019-05-11T10:11:19.055Z,12.50
2019-05-11T10:13:47.771Z,12.47
2019-05-11T10:16:17.609Z,14.43
2019-05-11T10:18:48.880Z,14.97
2019-05-11T10:21:15.550Z,15.67
2019-05-11T10:23:42.739Z,15.77
2019-05-11T10:26:09.976Z,15.47
2019-05-11T10:28:38.938Z,13.93
2019-05-11T10:31:08.587Z,13.50
2019-05-11T10:33:38.083Z,14.67
2019-05-11T10:36:08.408Z,13.90
2019-05-11T10:38:37.784Z,13.07
2019-05-11T10:41:04.868Z,13.20
2019-05-11T10:43:32.076Z,13.20
2019-05-11T10:45:59.561Z,12.10
2019-05-11T10:48:28.218Z,13.13
2019-05-11T10:50:57.132Z,11.73
2019-05-11T10:53:24.279Z,11.30
2019-05-11T10:55:51.275Z,11.97
2019-05-11T10:58:18.673Z,12.80
2019-05-11T11:00:48.042Z,14.20
2019-05-11T11:03:15.141Z,11.30
2019-05-11T11:05:42.117Z,11.33
2019-05-11T11:08:09.134Z,11.00
2019-05-11T11:10:37.848Z,9.57
2019-05-11T11:13:05.083Z,7.33
2019-05-11T11:15:32.221Z,7.37
2019-05-11T11:17:59.684Z,5.67
2019-05-11T11:20:28.037Z,5.80
2019-05-11T11:23:05.714Z,5.10
2019-05-11T11:25:40.322Z,4.60
2019-05-11T11:28:08.455Z,4.77
2019-05-11T11:30:37.844Z,4.43
2019-05-11T11:33:04.833Z,4.37
2019-05-11T11:35:31.991Z,4.50
2019-05-11T11:38:00.010Z,5.00
2019-05-11T11:40:28.152Z,5.13
2019-05-11T11:42:58.267Z,5.43
2019-05-11T11:45:25.006Z,5.53
2019-05-11T11:47:52.229Z,5.10
2019-05-11T11:50:19.208Z,5.27
2019-05-11T11:52:47.712Z,5.07
2019-05-11T11:55:14.934Z,5.47
2019-05-11T11:57:43.830Z,5.27
2019-05-11T12:00:11.151Z,4.80
2019-05-11T12:02:38.950Z,5.50
2019-05-11T12:05:08.617Z,5.60
2019-05-11T12:07:35.286Z,6.07
2019-05-11T12:10:02.443Z,5.47
2019-05-11T12:12:29.893Z,5.60
2019-05-11T12:14:58.439Z,5.47
2019-05-11T12:17:25.838Z,5.77
2019-05-11T12:19:52.907Z,5.60
2019-05-11T12:22:19.929Z,5.90
2019-05-11T12:24:48.191Z,5.87
2019-05-11T12:27:18.105Z,5.47
2019-05-11T12:29:45.121Z,5.97
2019-05-11T12:32:18.597Z,5.57
2019-05-11T12:34:48.057Z,5.43
2019-05-11T12:37:14.669Z,6.23
2019-05-11T12:39:42.886Z,5.37
2019-05-11T12:42:09.940Z,5.73
2019-05-11T12:44:38.725Z,5.50
2019-05-11T12:47:19.160Z,4.70
2019-05-11T12:49:35.076Z,5.63
2019-05-11T12:52:02.123Z,5.40
2019-05-11T12:54:29.554Z,5.10
2019-05-11T12:56:57.944Z,4.70
2019-05-11T12:59:27.600Z,4.50
2019-05-11T13:01:54.462Z,5.03
2019-05-11T13:04:21.665Z,5.67
2019-05-11T13:06:49.119Z,5.43
2019-05-11T13:09:18.350Z,5.50
2019-05-11T13:11:48.024Z,5.40
2019-05-11T13:14:15.738Z,5.57
2019-05-11T13:16:42.826Z,5.23
2019-05-11T13:19:10.294Z,4.70
2019-05-11T13:21:38.346Z,4.47
2019-05-11T13:24:08.159Z,5.53
2019-05-11T13:26:34.664Z,4.93
2019-05-11T13:29:01.785Z,4.93
2019-05-11T13:31:28.986Z,5.43
2019-05-11T13:33:58.364Z,5.43
2019-05-11T13:36:24.946Z,5.47
2019-05-11T13:38:51.999Z,5.40
2019-05-11T13:41:20.261Z,5.13
2019-05-11T13:43:48.965Z,4.90
2019-05-11T13:46:18.024Z,5.00
2019-05-11T13:48:47.535Z,4.83
2019-05-11T13:51:15.499Z,5.37
2019-05-11T13:53:42.614Z,5.00
2019-05-11T13:56:09.671Z,4.40
2019-05-11T13:58:38.129Z,4.73
2019-05-11T14:01:07.869Z,5.17
2019-05-11T14:03:34.263Z,4.60
2019-05-11T14:06:01.274Z,5.17
2019-05-11T14:08:30.367Z,5.23
2019-05-11T14:10:59.159Z,5.20
2019-05-11T14:13:28.030Z,4.57
2019-05-11T14:15:55.150Z,4.90
2019-05-11T14:18:22.535Z,4.73
2019-05-11T14:20:49.532Z,5.47
2019-05-11T14:23:18.263Z,5.53
2019-05-11T14:25:45.564Z,5.10
2019-05-11T14:28:12.608Z,4.80
2019-05-11T14:30:39.702Z,5.10
2019-05-11T14:33:08.695Z,5.00
2019-05-11T14:35:35.751Z,4.97
2019-05-11T14:38:03.162Z,5.10
2019-05-11T14:40:32.514Z,5.13
2019-05-11T14:42:59.887Z,4.77
2019-05-11T14:45:28.814Z,5.57
2019-05-11T14:47:58.086Z,4.67
2019-05-11T14:50:25.136Z,4.97
2019-05-11T14:52:52.591Z,4.77
2019-05-11T14:55:20.288Z,5.43
2019-05-11T14:57:48.622Z,5.43
2019-05-11T15:00:18.501Z,5.37
2019-05-11T15:02:48.602Z,5.33
2019-05-11T15:05:19.506Z,5.43
2019-05-11T15:07:47.977Z,4.97
2019-05-11T15:10:18.524Z,5.60
2019-05-11T15:12:45.063Z,5.37
2019-05-11T15:15:12.903Z,5.73
2019-05-11T15:17:39.907Z,5.17
2019-05-11T15:20:08.298Z,4.87
2019-05-11T15:22:37.358Z,5.23
2019-05-11T15:25:08.036Z,5.07
2019-05-11T15:27:35.347Z,5.57
2019-05-11T15:30:02.470Z,5.50
2019-05-11T15:32:29.508Z,4.80
2019-05-11T15:34:57.816Z,4.63
2019-05-11T15:37:24.995Z,5.17
2019-05-11T15:39:55.298Z,5.43
2019-05-11T15:42:22.439Z,5.43
2019-05-11T15:44:49.905Z,5.37
2019-05-11T15:47:16.945Z,5.27
2019-05-11T15:49:43.968Z,5.53
2019-05-11T15:52:11.453Z,4.63
2019-05-11T15:54:38.640Z,4.93
2019-05-11T15:57:05.776Z,4.97
2019-05-11T15:59:32.804Z,4.70
2019-05-11T16:02:01.222Z,3.93
2019-05-11T16:04:28.247Z,3.87
2019-05-11T16:06:57.593Z,4.00
2019-05-11T16:09:24.663Z,3.90
2019-05-11T16:11:51.676Z,4.00
2019-05-11T16:14:18.738Z,3.87
2019-05-11T16:16:47.926Z,3.50
2019-05-11T16:19:15.444Z,3.43
2019-05-11T16:21:43.132Z,3.70
2019-05-11T16:24:10.558Z,5.53
2019-05-11T16:26:37.548Z,9.30
2019-05-11T16:29:11.450Z,4.97
2019-05-11T16:31:38.016Z,3.43
2019-05-11T16:34:05.152Z,2.93
2019-05-11T16:36:32.172Z,3.17
2019-05-11T16:38:59.356Z,3.10
2019-05-11T16:41:29.142Z,3.13
2019-05-11T16:43:58.368Z,3.20
2019-05-11T16:46:30.841Z,2.70
2019-05-11T16:48:58.712Z,2.77
2019-05-11T16:51:28.224Z,2.93
2019-05-11T16:53:54.881Z,2.70
2019-05-11T16:56:23.849Z,2.30
2019-05-11T16:58:54.264Z,3.07
2019-05-11T17:01:21.044Z,2.00
2019-05-11T17:03:48.316Z,2.03
2019-05-11T17:06:16.060Z,2.17
2019-05-11T17:08:43.088Z,2.10
2019-05-11T17:11:10.310Z,2.07
2019-05-11T17:13:38.131Z,1.70
2019-05-11T17:16:05.208Z,2.00
2019-05-11T17:18:32.272Z,1.93
2019-05-11T17:20:59.464Z,1.93
2019-05-11T17:23:30.894Z,1.63
2019-05-11T17:25:57.867Z,1.70
2019-05-11T17:28:24.965Z,2.40
2019-05-11T17:30:55.238Z,1.97
2019-05-11T17:33:22.645Z,1.80
2019-05-11T17:35:52.138Z,1.50
2019-05-11T17:38:19.135Z,1.67
2019-05-11T17:40:48.267Z,1.40
2019-05-11T17:43:17.971Z,1.70
2019-05-11T17:45:44.744Z,1.50
2019-05-11T17:48:12.901Z,1.30
2019-05-11T17:50:40.041Z,1.37
2019-05-11T17:53:09.441Z,1.40
2019-05-11T17:55:38.456Z,1.53
2019-05-11T17:58:05.984Z,1.50
2019-05-11T18:00:33.019Z,1.67
2019-05-11T18:03:00.060Z,1.37
2019-05-11T18:05:27.073Z,1.47
2019-05-11T18:07:54.596Z,1.90
2019-05-11T18:10:21.617Z,1.67
2019-05-11T18:12:48.980Z,1.87
2019-05-11T18:15:18.578Z,1.63
2019-05-11T18:17:48.149Z,1.67
2019-05-11T18:20:18.654Z,1.80
2019-05-11T18:22:45.321Z,1.70
2019-05-11T18:25:14.114Z,1.53
2019-05-11T18:27:41.562Z,1.60
2019-05-11T18:30:10.281Z,1.50
2019-05-11T18:32:39.607Z,4.07
2019-05-11T18:35:08.386Z,1.87
2019-05-11T18:37:38.695Z,1.47
2019-05-11T18:40:06.107Z,2.00
2019-05-11T18:42:33.142Z,1.70
2019-05-11T18:45:00.322Z,1.33
2019-05-11T18:47:29.806Z,1.43
2019-05-11T18:49:58.791Z,1.57
2019-05-11T18:52:25.857Z,1.60
2019-05-11T18:54:52.853Z,1.80
2019-05-11T18:57:20.211Z,1.47
2019-05-11T18:59:48.406Z,1.40
2019-05-11T19:02:15.586Z,1.30
2019-05-11T19:04:44.532Z,1.70
2019-05-11T19:07:16.828Z,1.60
2019-05-11T19:09:40.886Z,1.37
2019-05-11T19:12:10.718Z,1.80
2019-05-11T19:14:38.562Z,2.00
2019-05-11T19:17:07.722Z,1.93
2019-05-11T19:19:35.317Z,1.40
2019-05-11T19:22:04.154Z,1.30
2019-05-11T19:24:31.181Z,1.60
2019-05-11T19:26:58.816Z,1.33
2019-05-11T19:29:28.311Z,1.50
2019-05-11T19:31:57.933Z,1.50
2019-05-11T19:34:24.805Z,1.67
2019-05-11T19:36:51.925Z,1.23
2019-05-11T19:39:19.478Z,1.40
2019-05-11T19:41:47.189Z,1.60
2019-05-11T19:44:14.292Z,1.60
2019-05-11T19:46:41.337Z,1.47
2019-05-11T19:49:08.760Z,1.90
2019-05-11T19:51:42.140Z,1.93
2019-05-11T19:54:08.563Z,1.60
2019-05-11T19:56:37.801Z,1.53
2019-05-11T19:59:04.753Z,1.70
2019-05-11T20:01:31.745Z,1.70
2019-05-11T20:03:58.790Z,1.50
2019-05-11T20:06:28.048Z,1.77
2019-05-11T20:08:55.336Z,1.90
2019-05-11T20:11:22.485Z,1.33
2019-05-11T20:13:49.497Z,1.73
2019-05-11T20:16:18.894Z,1.23
2019-05-11T20:18:46.065Z,1.60
2019-05-11T20:21:18.830Z,1.70
2019-05-11T20:23:42.042Z,1.30
2019-05-11T20:26:09.150Z,1.63
2019-05-11T20:28:37.817Z,1.63
2019-05-11T20:31:07.871Z,1.37
2019-05-11T20:33:35.409Z,1.53
2019-05-11T20:36:02.992Z,1.70
2019-05-11T20:38:30.043Z,1.33
2019-05-11T20:40:57.734Z,1.23
2019-05-11T20:43:25.007Z,1.30
2019-05-11T20:45:52.027Z,2.03
2019-05-11T20:48:19.043Z,2.40
2019-05-11T20:50:48.336Z,1.57
2019-05-11T20:53:17.994Z,1.43
2019-05-11T20:55:44.912Z,1.97
2019-05-11T20:58:15.035Z,1.80
2019-05-11T21:00:42.812Z,1.53
2019-05-11T21:03:09.819Z,1.73
2019-05-11T21:05:37.755Z,1.57
2019-05-11T21:08:08.318Z,1.90
2019-05-11T21:10:35.412Z,1.30
2019-05-11T21:13:03.097Z,1.93
2019-05-11T21:15:30.507Z,1.73
2019-05-11T21:17:58.632Z,1.87
2019-05-11T21:20:25.924Z,1.40
2019-05-11T21:22:52.901Z,2.33
2019-05-11T21:25:20.351Z,1.60
2019-05-11T21:27:48.610Z,1.60
2019-05-11T21:30:18.293Z,1.80
2019-05-11T21:32:45.071Z,1.60
2019-05-11T21:35:12.763Z,1.63
2019-05-11T21:37:39.744Z,2.10
2019-05-11T21:40:09.146Z,1.47
2019-05-11T21:42:39.106Z,2.63
2019-05-11T21:45:09.235Z,1.80
2019-05-11T21:47:38.345Z,1.93
2019-05-11T21:50:05.050Z,1.87
2019-05-11T21:52:32.564Z,1.80
2019-05-11T21:55:02.835Z,1.93
2019-05-11T21:57:30.509Z,1.57
2019-05-11T22:00:00.576Z,2.30
2019-05-11T22:02:28.728Z,2.13
2019-05-11T22:04:58.512Z,2.13
2019-05-11T22:07:27.833Z,1.80
2019-05-11T22:09:54.836Z,1.50
2019-05-11T22:12:22.300Z,2.37
2019-05-11T22:14:49.316Z,1.67
2019-05-11T22:17:18.217Z,1.83
2019-05-11T22:19:47.391Z,1.67
2019-05-11T22:22:22.515Z,1.77
2019-05-11T22:24:43.904Z,1.93
2019-05-11T22:27:10.908Z,2.00
2019-05-11T22:29:38.004Z,1.83
2019-05-11T22:32:05.765Z,2.20
2019-05-11T22:34:32.816Z,2.43
2019-05-11T22:36:59.808Z,2.30
2019-05-11T22:39:26.815Z,1.67
2019-05-11T22:41:54.364Z,2.40
2019-05-11T22:44:21.520Z,1.90
2019-05-11T22:46:48.704Z,2.27
2019-05-11T22:49:17.769Z,1.97
2019-05-11T22:51:45.105Z,2.07
2019-05-11T22:54:12.153Z,2.07
2019-05-11T22:56:39.337Z,2.20
2019-05-11T22:59:08.267Z,1.80
2019-05-11T23:01:37.893Z,2.27
2019-05-11T23:04:06.197Z,1.70
2019-05-11T23:06:33.208Z,2.07
2019-05-11T23:09:00.205Z,2.20
2019-05-11T23:11:28.511Z,2.03
2019-05-11T23:13:55.953Z,2.23
2019-05-11T23:16:22.997Z,1.80
2019-05-11T23:18:50.000Z,2.40
2019-05-11T23:21:17.105Z,2.90
2019-05-11T23:23:44.243Z,2.23
2019-05-11T23:26:11.904Z,2.67
2019-05-11T23:28:38.913Z,2.43
2019-05-11T23:31:05.933Z,2.60
2019-05-11T23:33:32.970Z,2.10
2019-05-11T23:36:00.397Z,2.23
2019-05-11T23:38:28.204Z,2.10
2019-05-11T23:40:55.417Z,2.20
2019-05-11T23:43:22.477Z,2.20
2019-05-11T23:45:49.619Z,2.33
2019-05-11T23:48:17.069Z,2.30
2019-05-11T23:50:46.169Z,2.23
2019-05-11T23:53:13.727Z,2.07
2019-05-11T23:55:40.786Z,2.37
2019-05-11T23:58:08.715Z,1.90
